Time;durP1;ratioP1;P1;durP2;ratioP2;P2;SDS_P1;SDS_P2;PMS_P1;PMS_P2;Temp;Humidity;BMP_temperature;BMP_pressure;BME280_temperature;BME280_humidity;BME280_pressure;Samples;Min_cycle;Max_cycle;Signal;HPM_P1;HPM_P2
2021/03/24 00:00:47;;;;;;;;;;;20.50;28.20;;;;;;482679;247;1068;-67
2021/03/24 00:02:48;;;;;;;;;;;20.50;28.30;;;;;;482530;246;2137;-67
2021/03/24 00:04:50;;;;;;;;;;;20.50;28.30;;;;;;482537;246;1063;-68
2021/03/24 00:06:51;;;;;;;;;;;20.50;28.30;;;;;;482785;246;1252;-68
2021/03/24 00:08:52;;;;;;;;;;;20.40;28.30;;;;;;482636;246;1014;-67
2021/03/24 00:10:53;;;;;;;;;;;20.50;28.30;;;;;;482641;246;1155;-68
2021/03/24 00:12:55;;;;;;;;;;;20.40;28.40;;;;;;482530;247;1003;-67
2021/03/24 00:14:56;;;;;;;;;;;20.40;28.40;;;;;;482510;247;1077;-68
2021/03/24 00:16:57;;;;;;;;;;;20.30;28.40;;;;;;482515;246;1267;-68
2021/03/24 00:18:59;;;;;;;;;;;20.30;28.40;;;;;;482575;246;964;-68
2021/03/24 00:21:00;;;;;;;;;;;20.40;28.40;;;;;;482503;246;1540;-68
2021/03/24 00:23:01;;;;;;;;;;;20.30;28.40;;;;;;482547;246;2197;-67
2021/03/24 00:25:02;;;;;;;;;;;20.40;28.40;;;;;;482459;246;1174;-68
2021/03/24 00:27:04;;;;;;;;;;;20.30;28.40;;;;;;482469;246;1074;-67
2021/03/24 00:29:05;;;;;;;;;;;20.30;28.40;;;;;;482575;247;1053;-67
2021/03/24 00:31:06;;;;;;;;;;;20.20;28.40;;;;;;482448;244;1207;-67
2021/03/24 00:33:08;;;;;;;;;;;20.20;28.50;;;;;;482636;246;1034;-67
2021/03/24 00:35:09;;;;;;;;;;;20.10;28.50;;;;;;482500;246;1029;-67
2021/03/24 00:37:10;;;;;;;;;;;20.10;28.50;;;;;;482511;247;1057;-67
2021/03/24 00:39:16;;;;;;;;;;;20.20;28.50;;;;;;482618;246;1073;-67
2021/03/24 00:41:13;;;;;;;;;;;20.20;28.50;;;;;;482412;247;1394;-67
2021/03/24 00:43:14;;;;;;;;;;;20.10;28.40;;;;;;482525;246;2129;-67
2021/03/24 00:45:16;;;;;;;;;;;20.10;28.40;;;;;;482578;247;1067;-68
2021/03/24 00:47:17;;;;;;;;;;;20.10;28.40;;;;;;482456;247;1060;-68
2021/03/24 00:49:18;;;;;;;;;;;20.10;28.40;;;;;;482733;247;1097;-67
2021/03/24 00:51:20;;;;;;;;;;;20.20;28.40;;;;;;482656;246;1590;-69
2021/03/24 00:53:21;;;;;;;;;;;20.20;28.40;;;;;;482564;246;1059;-68
2021/03/24 00:55:22;;;;;;;;;;;20.20;28.40;;;;;;482474;247;1383;-67
2021/03/24 00:57:23;;;;;;;;;;;20.20;28.40;;;;;;482449;246;1139;-67
2021/03/24 00:59:25;;;;;;;;;;;20.20;28.40;;;;;;482713;247;1116;-67
2021/03/24 01:01:26;;;;;;;;;;;20.10;28.40;;;;;;482561;247;1696;-67
2021/03/24 01:03:27;;;;;;;;;;;20.10;28.30;;;;;;482668;246;2126;-67
2021/03/24 01:05:28;;;;;;;;;;;20.10;28.40;;;;;;482695;247;1155;-67
2021/03/24 01:07:30;;;;;;;;;;;20.10;28.40;;;;;;482540;246;1050;-68
2021/03/24 01:09:31;;;;;;;;;;;20.10;28.30;;;;;;482773;246;1058;-67
2021/03/24 01:11:32;;;;;;;;;;;20.00;28.50;;;;;;482663;245;1281;-67
2021/03/24 01:13:34;;;;;;;;;;;20.00;28.60;;;;;;482530;246;984;-68
2021/03/24 01:15:35;;;;;;;;;;;20.00;28.50;;;;;;482439;247;1212;-68
2021/03/24 01:17:36;;;;;;;;;;;20.00;28.50;;;;;;482502;247;1110;-67
2021/03/24 01:19:37;;;;;;;;;;;20.00;28.50;;;;;;482495;247;1069;-67
2021/03/24 01:21:39;;;;;;;;;;;20.00;28.50;;;;;;482488;246;2133;-67
2021/03/24 01:23:40;;;;;;;;;;;20.00;28.50;;;;;;482609;246;1018;-68
2021/03/24 01:25:41;;;;;;;;;;;19.90;28.50;;;;;;482546;245;1143;-67
2021/03/24 01:27:42;;;;;;;;;;;19.90;28.50;;;;;;482599;246;1034;-67
2021/03/24 01:29:44;;;;;;;;;;;19.90;28.50;;;;;;482496;247;999;-68
2021/03/24 01:31:45;;;;;;;;;;;19.90;28.50;;;;;;482444;247;1224;-68
2021/03/24 01:33:46;;;;;;;;;;;19.90;28.50;;;;;;482420;247;1042;-68
2021/03/24 01:35:48;;;;;;;;;;;20.00;28.50;;;;;;482422;247;1149;-68
2021/03/24 01:37:49;;;;;;;;;;;19.90;28.40;;;;;;482518;247;1070;-68
2021/03/24 01:39:50;;;;;;;;;;;20.00;28.40;;;;;;482462;246;1054;-67
2021/03/24 01:41:51;;;;;;;;;;;19.90;28.30;;;;;;482486;246;2153;-68
2021/03/24 01:43:53;;;;;;;;;;;19.90;28.40;;;;;;482501;247;1077;-68
2021/03/24 01:45:54;;;;;;;;;;;19.90;28.50;;;;;;482524;244;1296;-67
2021/03/24 01:47:55;;;;;;;;;;;19.90;28.50;;;;;;482486;246;1231;-67
2021/03/24 01:49:57;;;;;;;;;;;19.80;28.50;;;;;;482456;247;1064;-68
2021/03/24 01:51:58;;;;;;;;;;;19.80;28.50;;;;;;482579;246;1279;-68
2021/03/24 01:53:59;;;;;;;;;;;19.80;28.40;;;;;;482792;246;1041;-68
2021/03/24 01:56:00;;;;;;;;;;;19.80;28.50;;;;;;482632;246;1405;-68
2021/03/24 01:58:02;;;;;;;;;;;19.80;28.50;;;;;;482414;247;1065;-68
2021/03/24 02:00:03;;;;;;;;;;;19.80;28.50;;;;;;482465;247;1067;-68
2021/03/24 02:02:04;;;;;;;;;;;19.80;28.40;;;;;;482445;247;2196;-67
2021/03/24 02:04:06;;;;;;;;;;;19.80;28.50;;;;;;482740;247;1075;-68
2021/03/24 02:06:07;;;;;;;;;;;19.80;28.50;;;;;;482427;246;1343;-68
2021/03/24 02:08:08;;;;;;;;;;;19.80;28.40;;;;;;482486;246;1018;-68
2021/03/24 02:10:09;;;;;;;;;;;19.80;28.40;;;;;;482715;246;1070;-67
2021/03/24 02:12:11;;;;;;;;;;;19.80;28.40;;;;;;482243;247;1256;-67
2021/03/24 02:14:12;;;;;;;;;;;19.70;28.40;;;;;;482761;247;1039;-67
2021/03/24 02:16:13;;;;;;;;;;;19.70;28.40;;;;;;482410;247;1208;-68
2021/03/24 02:18:14;;;;;;;;;;;19.70;28.40;;;;;;482516;246;1172;-68
2021/03/24 02:20:16;;;;;;;;;;;19.80;28.40;;;;;;482540;247;1043;-68
2021/03/24 02:22:17;;;;;;;;;;;19.80;28.40;;;;;;482352;247;2208;-68
2021/03/24 02:24:18;;;;;;;;;;;19.70;28.40;;;;;;482732;246;1006;-68
2021/03/24 02:26:20;;;;;;;;;;;19.80;28.30;;;;;;482738;246;1231;-67
2021/03/24 02:28:21;;;;;;;;;;;19.80;28.40;;;;;;482469;246;1067;-68
2021/03/24 02:30:22;;;;;;;;;;;19.70;28.40;;;;;;482498;246;1306;-67
2021/03/24 02:32:23;;;;;;;;;;;19.70;28.50;;;;;;482468;246;1065;-67
2021/03/24 02:34:25;;;;;;;;;;;19.70;28.50;;;;;;482504;246;996;-68
2021/03/24 02:36:26;;;;;;;;;;;19.70;28.50;;;;;;482469;247;1090;-68
2021/03/24 02:38:27;;;;;;;;;;;19.60;28.40;;;;;;482785;246;1044;-67
2021/03/24 02:40:29;;;;;;;;;;;19.60;28.50;;;;;;482661;246;1126;-68
2021/03/24 02:42:30;;;;;;;;;;;19.60;28.40;;;;;;482578;246;2173;-67
2021/03/24 02:44:31;;;;;;;;;;;19.70;28.40;;;;;;482929;246;1070;-67
2021/03/24 02:46:32;;;;;;;;;;;19.70;28.40;;;;;;482707;246;1053;-67
2021/03/24 02:48:34;;;;;;;;;;;19.60;28.40;;;;;;482452;247;1078;-67
2021/03/24 02:50:35;;;;;;;;;;;19.50;28.40;;;;;;482649;246;1038;-68
2021/03/24 02:52:36;;;;;;;;;;;19.60;28.40;;;;;;482483;247;1246;-67
2021/03/24 02:54:37;;;;;;;;;;;19.60;28.40;;;;;;482514;246;1071;-68
2021/03/24 02:56:39;;;;;;;;;;;19.60;28.40;;;;;;482711;246;1030;-67
2021/03/24 02:58:40;;;;;;;;;;;19.60;28.30;;;;;;482596;246;1144;-67
2021/03/24 03:00:41;;;;;;;;;;;19.60;28.40;;;;;;482639;246;1033;-68
2021/03/24 03:02:42;;;;;;;;;;;19.50;28.40;;;;;;482483;247;2201;-68
2021/03/24 03:04:44;;;;;;;;;;;19.60;28.40;;;;;;482552;246;987;-68
2021/03/24 03:06:45;;;;;;;;;;;19.60;28.40;;;;;;482412;247;1205;-67
2021/03/24 03:08:46;;;;;;;;;;;19.60;28.40;;;;;;482471;247;1069;-68
2021/03/24 03:10:48;;;;;;;;;;;19.60;28.40;;;;;;482683;246;1051;-68
2021/03/24 03:12:49;;;;;;;;;;;19.60;28.40;;;;;;482512;247;1144;-68
2021/03/24 03:14:50;;;;;;;;;;;19.60;28.40;;;;;;482471;246;1004;-68
2021/03/24 03:16:52;;;;;;;;;;;19.50;28.50;;;;;;482476;246;1083;-68
2021/03/24 03:18:53;;;;;;;;;;;19.50;28.40;;;;;;482590;246;1205;-67
2021/03/24 03:20:54;;;;;;;;;;;19.60;28.40;;;;;;482503;247;1064;-67
2021/03/24 03:22:55;;;;;;;;;;;19.60;28.40;;;;;;482512;247;2191;-67
2021/03/24 03:24:57;;;;;;;;;;;19.60;28.40;;;;;;482482;246;1058;-67
2021/03/24 03:26:58;;;;;;;;;;;19.50;28.40;;;;;;482487;246;1075;-68
2021/03/24 03:28:59;;;;;;;;;;;19.60;28.40;;;;;;482577;246;1116;-68
2021/03/24 03:31:00;;;;;;;;;;;19.60;28.40;;;;;;482709;245;1204;-68
2021/03/24 03:33:02;;;;;;;;;;;19.60;28.40;;;;;;482672;246;1352;-68
2021/03/24 03:35:03;;;;;;;;;;;19.50;28.40;;;;;;482952;246;966;-68
2021/03/24 03:37:04;;;;;;;;;;;19.50;28.40;;;;;;482734;246;1067;-67
2021/03/24 03:39:06;;;;;;;;;;;19.50;28.40;;;;;;482540;247;1068;-68
2021/03/24 03:41:07;;;;;;;;;;;19.50;28.50;;;;;;482261;246;1065;-67
2021/03/24 03:43:08;;;;;;;;;;;19.50;28.60;;;;;;482463;245;2192;-67
2021/03/24 03:45:09;;;;;;;;;;;19.50;28.60;;;;;;482524;246;1106;-67
2021/03/24 03:47:11;;;;;;;;;;;19.50;28.60;;;;;;482466;246;1186;-67
2021/03/24 03:49:12;;;;;;;;;;;19.40;28.50;;;;;;482400;247;1101;-68
2021/03/24 03:51:13;;;;;;;;;;;19.50;28.60;;;;;;482327;247;1295;-68
2021/03/24 03:53:14;;;;;;;;;;;19.40;28.60;;;;;;482434;246;1083;-68
2021/03/24 03:55:16;;;;;;;;;;;19.40;28.60;;;;;;482355;245;1059;-67
2021/03/24 03:57:17;;;;;;;;;;;19.40;28.70;;;;;;482301;247;1290;-68
2021/03/24 03:59:18;;;;;;;;;;;19.40;28.60;;;;;;482572;246;1165;-68
2021/03/24 04:01:20;;;;;;;;;;;19.50;28.60;;;;;;482377;247;1170;-68
2021/03/24 04:03:21;;;;;;;;;;;19.50;28.60;;;;;;482494;246;2153;-68
2021/03/24 04:05:22;;;;;;;;;;;19.40;28.60;;;;;;482520;246;1121;-68
2021/03/24 04:07:24;;;;;;;;;;;19.40;28.60;;;;;;482521;247;1141;-67
2021/03/24 04:09:25;;;;;;;;;;;19.40;28.70;;;;;;482477;246;1075;-67
2021/03/24 04:11:26;;;;;;;;;;;19.40;28.60;;;;;;482495;247;1188;-67
2021/03/24 04:13:27;;;;;;;;;;;19.50;28.60;;;;;;482446;245;1246;-68
2021/03/24 04:15:29;;;;;;;;;;;19.40;28.60;;;;;;482492;246;1198;-68
2021/03/24 04:17:30;;;;;;;;;;;19.40;28.70;;;;;;482377;245;1182;-67
2021/03/24 04:19:31;;;;;;;;;;;19.30;28.70;;;;;;482725;246;1084;-67
2021/03/24 04:21:32;;;;;;;;;;;19.40;28.70;;;;;;482418;244;1685;-67
2021/03/24 04:23:34;;;;;;;;;;;19.40;28.70;;;;;;482491;246;2137;-67
2021/03/24 04:25:35;;;;;;;;;;;19.40;28.70;;;;;;482424;245;1077;-68
2021/03/24 04:27:36;;;;;;;;;;;19.40;28.70;;;;;;482535;245;1181;-68
2021/03/24 04:29:37;;;;;;;;;;;19.30;28.70;;;;;;482484;246;1166;-67
2021/03/24 04:31:39;;;;;;;;;;;19.40;28.80;;;;;;482432;247;1173;-67
2021/03/24 04:33:40;;;;;;;;;;;19.40;28.70;;;;;;482614;246;1057;-68
2021/03/24 04:35:41;;;;;;;;;;;19.40;28.80;;;;;;482877;247;1098;-68
2021/03/24 04:37:43;;;;;;;;;;;19.40;28.80;;;;;;482503;247;1324;-67
2021/03/24 04:39:44;;;;;;;;;;;19.40;28.80;;;;;;482446;247;1084;-68
2021/03/24 04:41:45;;;;;;;;;;;19.30;28.80;;;;;;482388;247;1209;-68
2021/03/24 04:43:46;;;;;;;;;;;19.30;28.90;;;;;;482558;247;2200;-67
2021/03/24 04:45:48;;;;;;;;;;;19.30;28.80;;;;;;482413;246;1076;-68
2021/03/24 04:47:49;;;;;;;;;;;19.40;28.80;;;;;;482567;246;1086;-67
2021/03/24 04:49:50;;;;;;;;;;;19.40;28.80;;;;;;482424;247;1127;-67
2021/03/24 04:51:52;;;;;;;;;;;19.40;28.80;;;;;;482350;246;1303;-67
2021/03/24 04:53:53;;;;;;;;;;;19.40;28.80;;;;;;482577;246;1096;-68
2021/03/24 04:55:54;;;;;;;;;;;19.40;28.80;;;;;;482477;246;1124;-67
2021/03/24 04:57:56;;;;;;;;;;;19.30;28.80;;;;;;482541;246;1017;-67
2021/03/24 04:59:57;;;;;;;;;;;19.40;28.80;;;;;;482561;247;1300;-68
2021/03/24 05:01:58;;;;;;;;;;;19.40;28.80;;;;;;482583;247;1018;-67
2021/03/24 05:03:59;;;;;;;;;;;19.40;28.70;;;;;;482451;246;2153;-68
2021/03/24 05:06:01;;;;;;;;;;;19.40;28.70;;;;;;482468;246;1049;-67
2021/03/24 05:08:02;;;;;;;;;;;19.40;28.70;;;;;;482480;246;1100;-67
2021/03/24 05:10:03;;;;;;;;;;;19.40;28.70;;;;;;482416;246;1113;-67
2021/03/24 05:12:04;;;;;;;;;;;19.40;28.80;;;;;;482541;246;1138;-67
2021/03/24 05:14:06;;;;;;;;;;;19.40;28.70;;;;;;482431;245;1075;-67
2021/03/24 05:16:07;;;;;;;;;;;19.40;28.70;;;;;;482381;246;1212;-67
2021/03/24 05:18:08;;;;;;;;;;;19.40;28.70;;;;;;482420;246;1119;-67
2021/03/24 05:20:10;;;;;;;;;;;19.40;28.70;;;;;;482380;247;1057;-67
2021/03/24 05:22:11;;;;;;;;;;;19.30;28.70;;;;;;482342;246;1196;-67
2021/03/24 05:24:12;;;;;;;;;;;19.30;28.70;;;;;;482489;247;2196;-67
2021/03/24 05:26:13;;;;;;;;;;;19.40;28.70;;;;;;482295;247;1286;-67
2021/03/24 05:28:15;;;;;;;;;;;19.50;28.70;;;;;;482465;246;1051;-67
2021/03/24 05:30:16;;;;;;;;;;;19.40;28.70;;;;;;482362;247;1203;-67
2021/03/24 05:32:18;;;;;;;;;;;19.40;28.70;;;;;;482302;246;1222;-67
2021/03/24 05:34:19;;;;;;;;;;;19.40;28.70;;;;;;482395;246;1040;-67
2021/03/24 05:36:20;;;;;;;;;;;19.30;28.80;;;;;;482235;246;1163;-67
2021/03/24 05:38:21;;;;;;;;;;;19.30;28.80;;;;;;482198;246;1072;-67
2021/03/24 05:40:23;;;;;;;;;;;19.40;28.80;;;;;;482176;245;1400;-67
2021/03/24 05:42:24;;;;;;;;;;;19.40;28.70;;;;;;482190;245;1400;-67
2021/03/24 05:44:25;;;;;;;;;;;19.40;28.70;;;;;;482026;247;2185;-67
2021/03/24 05:46:26;;;;;;;;;;;19.40;28.70;;;;;;482031;247;1266;-67
2021/03/24 05:48:28;;;;;;;;;;;19.40;28.70;;;;;;482228;247;1152;-67
2021/03/24 05:50:29;;;;;;;;;;;19.40;28.80;;;;;;482144;247;1640;-67
2021/03/24 05:52:30;;;;;;;;;;;19.40;28.70;;;;;;482135;247;1146;-67
2021/03/24 05:54:32;;;;;;;;;;;19.40;28.70;;;;;;482248;247;1165;-67
2021/03/24 05:56:33;;;;;;;;;;;19.40;28.70;;;;;;482039;246;1586;-67
2021/03/24 05:58:35;;;;;;;;;;;19.40;28.70;;;;;;482286;246;1087;-67
2021/03/24 06:00:36;;;;;;;;;;;19.40;28.70;;;;;;482219;246;1593;-67
2021/03/24 06:02:37;;;;;;;;;;;19.40;28.80;;;;;;482183;246;1098;-67
2021/03/24 06:04:38;;;;;;;;;;;19.40;28.80;;;;;;482145;247;2205;-67
2021/03/24 06:06:40;;;;;;;;;;;19.40;28.70;;;;;;482155;245;1187;-67
2021/03/24 06:08:41;;;;;;;;;;;19.40;28.70;;;;;;482074;247;1264;-67
2021/03/24 06:10:42;;;;;;;;;;;19.40;28.70;;;;;;482177;246;1482;-67
2021/03/24 06:12:44;;;;;;;;;;;19.40;28.80;;;;;;482277;247;1044;-67
2021/03/24 06:14:45;;;;;;;;;;;19.40;28.80;;;;;;482107;247;1213;-67
2021/03/24 06:16:46;;;;;;;;;;;19.40;28.80;;;;;;482043;246;1096;-67
2021/03/24 06:18:47;;;;;;;;;;;19.40;28.80;;;;;;482195;246;1111;-67
2021/03/24 06:20:49;;;;;;;;;;;19.40;28.80;;;;;;482100;247;1121;-67
2021/03/24 06:22:50;;;;;;;;;;;19.40;28.80;;;;;;482111;246;1065;-67
2021/03/24 06:24:51;;;;;;;;;;;19.50;28.90;;;;;;482137;245;2184;-67
2021/03/24 06:26:53;;;;;;;;;;;19.40;28.80;;;;;;481926;245;1100;-67
2021/03/24 06:28:54;;;;;;;;;;;19.50;28.80;;;;;;482117;246;1189;-67
2021/03/24 06:30:55;;;;;;;;;;;19.50;28.90;;;;;;482199;246;1106;-68
2021/03/24 06:32:56;;;;;;;;;;;19.40;28.90;;;;;;482018;245;1124;-67
2021/03/24 06:34:58;;;;;;;;;;;19.30;29.00;;;;;;481991;247;1075;-67
2021/03/24 06:36:59;;;;;;;;;;;19.20;29.20;;;;;;482002;247;1177;-67
2021/03/24 06:39:00;;;;;;;;;;;19.20;29.20;;;;;;482154;246;1084;-68
2021/03/24 06:41:01;;;;;;;;;;;19.20;29.20;;;;;;482071;244;1172;-68
2021/03/24 06:43:03;;;;;;;;;;;19.30;29.20;;;;;;481953;247;1282;-67
2021/03/24 06:45:04;;;;;;;;;;;19.30;29.20;;;;;;481865;246;2198;-67
2021/03/24 06:47:05;;;;;;;;;;;19.40;29.20;;;;;;481827;246;1205;-67
2021/03/24 06:49:07;;;;;;;;;;;19.40;29.20;;;;;;481855;246;1046;-67
2021/03/24 06:51:08;;;;;;;;;;;19.40;29.20;;;;;;481810;247;1204;-67
2021/03/24 06:53:10;;;;;;;;;;;19.40;29.10;;;;;;482002;246;1081;-67
2021/03/24 06:55:11;;;;;;;;;;;19.50;29.10;;;;;;482133;246;1069;-67
2021/03/24 06:57:12;;;;;;;;;;;19.50;29.10;;;;;;481966;247;1215;-67
2021/03/24 06:59:13;;;;;;;;;;;19.50;29.10;;;;;;481910;247;1239;-67
2021/03/24 07:01:15;;;;;;;;;;;19.50;29.10;;;;;;481825;245;1292;-67
2021/03/24 07:03:16;;;;;;;;;;;19.50;29.10;;;;;;481971;247;1070;-67
2021/03/24 07:05:17;;;;;;;;;;;19.60;29.20;;;;;;481923;245;2181;-67
2021/03/24 07:07:18;;;;;;;;;;;19.60;29.10;;;;;;481818;247;1371;-67
2021/03/24 07:09:20;;;;;;;;;;;19.60;29.00;;;;;;482049;247;1080;-67
2021/03/24 07:11:22;;;;;;;;;;;19.70;29.10;;;;;;481976;244;1344;-67
2021/03/24 07:13:23;;;;;;;;;;;19.60;29.10;;;;;;481979;246;1137;-67
2021/03/24 07:15:24;;;;;;;;;;;19.60;29.10;;;;;;481858;246;1316;-67
2021/03/24 07:17:25;;;;;;;;;;;19.70;29.10;;;;;;481774;245;1431;-67
2021/03/24 07:19:27;;;;;;;;;;;19.80;29.10;;;;;;481767;247;1243;-67
2021/03/24 07:21:28;;;;;;;;;;;19.70;29.00;;;;;;481697;247;1325;-67
2021/03/24 07:23:29;;;;;;;;;;;19.80;29.10;;;;;;481822;247;1078;-67
2021/03/24 07:25:30;;;;;;;;;;;19.80;29.10;;;;;;481713;247;2173;-67
2021/03/24 07:27:32;;;;;;;;;;;19.80;29.10;;;;;;481837;247;1139;-67
2021/03/24 07:29:33;;;;;;;;;;;19.80;29.10;;;;;;481898;245;1080;-67
2021/03/24 07:31:34;;;;;;;;;;;19.90;29.10;;;;;;481768;247;1215;-67
2021/03/24 07:33:36;;;;;;;;;;;19.90;29.10;;;;;;481908;246;1118;-67
2021/03/24 07:35:37;;;;;;;;;;;19.90;29.20;;;;;;481998;246;1202;-67
2021/03/24 07:37:38;;;;;;;;;;;19.90;29.10;;;;;;481790;246;1651;-67
2021/03/24 07:39:39;;;;;;;;;;;20.00;29.10;;;;;;481533;245;1123;-67
2021/03/24 07:41:41;;;;;;;;;;;20.00;29.10;;;;;;481589;247;1179;-67
2021/03/24 07:43:42;;;;;;;;;;;20.10;29.20;;;;;;481792;247;1130;-67
2021/03/24 07:45:43;;;;;;;;;;;20.00;29.10;;;;;;481839;246;2114;-67
2021/03/24 07:47:45;;;;;;;;;;;20.00;29.20;;;;;;481783;247;1220;-67
2021/03/24 07:49:46;;;;;;;;;;;20.00;29.30;;;;;;481746;245;1049;-67
2021/03/24 07:51:47;;;;;;;;;;;19.90;29.40;;;;;;481714;246;1185;-67
2021/03/24 07:53:49;;;;;;;;;;;19.90;29.50;;;;;;481470;247;1119;-67
2021/03/24 07:55:50;;;;;;;;;;;19.90;29.50;;;;;;481465;246;1170;-67
2021/03/24 07:57:51;;;;;;;;;;;19.90;29.50;;;;;;481603;246;1216;-67
2021/03/24 07:59:53;;;;;;;;;;;20.00;29.50;;;;;;481757;246;1110;-67
2021/03/24 08:01:54;;;;;;;;;;;20.00;29.60;;;;;;481712;247;1373;-67
2021/03/24 08:03:55;;;;;;;;;;;20.00;29.50;;;;;;481644;246;2145;-67
2021/03/24 08:05:56;;;;;;;;;;;20.10;29.60;;;;;;481582;246;1102;-67
2021/03/24 08:07:58;;;;;;;;;;;20.00;29.50;;;;;;481682;247;1106;-67
2021/03/24 08:09:59;;;;;;;;;;;20.10;29.50;;;;;;481649;246;1110;-67
2021/03/24 08:12:00;;;;;;;;;;;20.10;29.50;;;;;;481690;246;1056;-67
2021/03/24 08:14:01;;;;;;;;;;;20.10;29.50;;;;;;481537;246;1138;-67
2021/03/24 08:16:03;;;;;;;;;;;20.10;29.50;;;;;;481623;245;1088;-67
2021/03/24 08:18:04;;;;;;;;;;;20.10;29.50;;;;;;481725;246;1222;-67
2021/03/24 08:20:06;;;;;;;;;;;20.20;29.40;;;;;;481621;247;1066;-67
2021/03/24 08:22:07;;;;;;;;;;;20.20;29.40;;;;;;481861;247;1101;-67
2021/03/24 08:24:08;;;;;;;;;;;20.20;29.50;;;;;;481568;246;2509;-67
2021/03/24 08:26:10;;;;;;;;;;;20.20;29.50;;;;;;481634;246;1320;-67
2021/03/24 08:28:11;;;;;;;;;;;20.20;29.40;;;;;;481668;247;1117;-67
2021/03/24 08:30:12;;;;;;;;;;;20.20;29.50;;;;;;481671;246;1126;-67
2021/03/24 08:32:14;;;;;;;;;;;20.20;29.50;;;;;;481659;246;1189;-67
2021/03/24 08:34:15;;;;;;;;;;;20.20;29.50;;;;;;481350;246;1132;-67
2021/03/24 08:36:16;;;;;;;;;;;20.20;29.50;;;;;;481398;247;1532;-67
2021/03/24 08:38:18;;;;;;;;;;;20.20;29.40;;;;;;481462;247;1118;-67
2021/03/24 08:40:19;;;;;;;;;;;20.30;29.40;;;;;;481192;246;1106;-67
2021/03/24 08:42:20;;;;;;;;;;;20.30;29.30;;;;;;481255;246;1273;-68
2021/03/24 08:44:22;;;;;;;;;;;20.30;29.30;;;;;;481495;246;2146;-67
2021/03/24 08:46:23;;;;;;;;;;;20.30;29.30;;;;;;481615;246;1349;-67
2021/03/24 08:48:24;;;;;;;;;;;20.40;29.30;;;;;;481506;246;1247;-67
2021/03/24 08:50:26;;;;;;;;;;;20.40;29.30;;;;;;470531;246;5563;-67
2021/03/24 08:52:27;;;;;;;;;;;20.40;29.30;;;;;;478423;248;1202;-67
2021/03/24 08:54:28;;;;;;;;;;;20.40;29.30;;;;;;478353;248;1063;-67
2021/03/24 08:56:30;;;;;;;;;;;20.40;29.30;;;;;;478471;248;1203;-67
2021/03/24 08:58:32;;;;;;;;;;;20.40;29.30;;;;;;478560;248;1094;-67
2021/03/24 09:00:32;;;;;;;;;;;20.50;29.20;;;;;;478539;246;1869;-67
2021/03/24 09:02:33;;;;;;;;;;;20.50;29.20;;;;;;478413;248;1265;-67
2021/03/24 09:04:35;;;;;;;;;;;20.40;29.20;;;;;;478355;249;2202;-67
2021/03/24 09:06:36;;;;;;;;;;;20.50;29.20;;;;;;478463;246;1115;-67
2021/03/24 09:08:38;;;;;;;;;;;20.50;29.20;;;;;;478414;249;1093;-67
2021/03/24 09:10:39;;;;;;;;;;;20.50;29.20;;;;;;478485;248;1080;-67
2021/03/24 09:12:40;;;;;;;;;;;20.60;29.20;;;;;;478496;248;1074;-67
2021/03/24 09:14:41;;;;;;;;;;;20.60;29.10;;;;;;478638;246;1250;-67
2021/03/24 09:16:43;;;;;;;;;;;20.70;29.20;;;;;;478545;249;1121;-67
2021/03/24 09:18:44;;;;;;;;;;;20.70;29.10;;;;;;478601;248;1123;-67
2021/03/24 09:20:45;;;;;;;;;;;20.70;29.10;;;;;;478570;249;1202;-67
2021/03/24 09:22:46;;;;;;;;;;;20.80;29.10;;;;;;478642;249;1140;-67
2021/03/24 09:24:48;;;;;;;;;;;20.80;29.10;;;;;;478617;249;2210;-69
2021/03/24 09:26:49;;;;;;;;;;;20.80;29.00;;;;;;478648;248;1232;-67
2021/03/24 09:28:50;;;;;;;;;;;20.90;28.90;;;;;;477828;249;1096;-67
2021/03/24 09:30:52;;;;;;;;;;;21.00;28.90;;;;;;478540;248;1335;-68
2021/03/24 09:32:53;;;;;;;;;;;21.00;28.80;;;;;;478674;249;1459;-67
2021/03/24 09:34:54;;;;;;;;;;;21.00;28.80;;;;;;478458;248;1101;-67
2021/03/24 09:36:56;;;;;;;;;;;21.10;28.70;;;;;;478612;246;1243;-67
2021/03/24 09:38:57;;;;;;;;;;;21.10;28.70;;;;;;478445;249;1086;-67
2021/03/24 09:40:58;;;;;;;;;;;21.20;28.60;;;;;;478464;246;1343;-67
2021/03/24 09:43:00;;;;;;;;;;;21.30;28.60;;;;;;477756;249;1167;-67
2021/03/24 09:45:05;;;;;;;;;;;21.30;28.40;;;;;;478486;249;2206;-67
2021/03/24 09:47:03;;;;;;;;;;;21.30;28.40;;;;;;478294;248;1457;-67
2021/03/24 09:49:04;;;;;;;;;;;21.30;28.40;;;;;;478461;249;1211;-67
2021/03/24 09:51:06;;;;;;;;;;;21.40;28.50;;;;;;478274;249;1135;-67
2021/03/24 09:53:07;;;;;;;;;;;21.40;28.50;;;;;;478260;249;1171;-67
2021/03/24 09:55:08;;;;;;;;;;;21.40;28.40;;;;;;478346;248;1142;-67
2021/03/24 09:57:10;;;;;;;;;;;21.40;28.40;;;;;;478411;248;1179;-67
2021/03/24 09:59:11;;;;;;;;;;;21.40;28.50;;;;;;478365;248;1085;-68
2021/03/24 10:01:13;;;;;;;;;;;21.50;28.40;;;;;;478502;248;1106;-67
2021/03/24 10:03:15;;;;;;;;;;;21.50;28.40;;;;;;478447;248;1175;-67
2021/03/24 10:05:15;;;;;;;;;;;21.60;28.40;;;;;;477555;248;2206;-67
2021/03/24 10:07:16;;;;;;;;;;;21.60;28.40;;;;;;478236;248;1109;-67
2021/03/24 10:09:18;;;;;;;;;;;21.60;28.40;;;;;;478247;246;1312;-67
2021/03/24 10:11:19;;;;;;;;;;;21.50;28.50;;;;;;478281;248;1231;-67
2021/03/24 10:13:21;;;;;;;;;;;21.50;28.50;;;;;;478439;248;1139;-67
2021/03/24 10:15:22;;;;;;;;;;;21.50;28.60;;;;;;478340;249;1026;-67
2021/03/24 10:17:23;;;;;;;;;;;21.40;28.70;;;;;;470464;253;1208;-67
2021/03/24 10:19:25;;;;;;;;;;;21.40;28.80;;;;;;477703;247;1183;-67
2021/03/24 10:21:26;;;;;;;;;;;21.40;28.80;;;;;;471015;250;1226;-67
2021/03/24 10:23:27;;;;;;;;;;;21.30;28.80;;;;;;478684;248;1094;-67
2021/03/24 10:25:29;;;;;;;;;;;21.40;28.80;;;;;;470675;250;2219;-67
2021/03/24 10:27:30;;;;;;;;;;;21.40;28.80;;;;;;478604;247;1238;-67
2021/03/24 10:29:31;;;;;;;;;;;21.50;28.80;;;;;;471519;250;869;-67
2021/03/24 10:31:33;;;;;;;;;;;21.50;28.70;;;;;;478312;245;1159;-67
2021/03/24 10:33:34;;;;;;;;;;;21.60;28.60;;;;;;471191;250;1199;-67
2021/03/24 10:35:35;;;;;;;;;;;21.60;28.60;;;;;;478287;248;1187;-67
2021/03/24 10:37:37;;;;;;;;;;;21.60;28.60;;;;;;470971;250;1266;-67
2021/03/24 10:39:38;;;;;;;;;;;21.70;28.60;;;;;;478302;248;1065;-67
2021/03/24 10:41:40;;;;;;;;;;;21.70;28.70;;;;;;470623;250;1285;-67
2021/03/24 10:43:41;;;;;;;;;;;21.70;28.60;;;;;;478494;248;1055;-67
2021/03/24 10:45:44;;;;;;;;;;;21.70;28.60;;;;;;470798;250;2199;-67
2021/03/24 10:47:44;;;;;;;;;;;21.70;28.60;;;;;;478438;243;1577;-67
2021/03/24 10:49:45;;;;;;;;;;;21.70;28.60;;;;;;470802;250;1266;-67
2021/03/24 10:51:46;;;;;;;;;;;21.70;28.60;;;;;;478449;248;1326;-67
2021/03/24 10:53:47;;;;;;;;;;;21.70;28.60;;;;;;470825;250;1105;-67
2021/03/24 10:55:49;;;;;;;;;;;21.70;28.60;;;;;;478305;248;1079;-67
2021/03/24 10:57:50;;;;;;;;;;;21.70;28.60;;;;;;470777;250;1192;-67
2021/03/24 10:59:52;;;;;;;;;;;21.70;28.60;;;;;;478284;248;1280;-67
2021/03/24 11:01:53;;;;;;;;;;;21.70;28.60;;;;;;470731;250;1248;-67
2021/03/24 11:03:54;;;;;;;;;;;21.70;28.60;;;;;;478417;248;1210;-67
2021/03/24 11:05:56;;;;;;;;;;;21.70;28.60;;;;;;470612;250;2209;-67
2021/03/24 11:07:57;;;;;;;;;;;21.60;28.60;;;;;;478279;248;1145;-67
2021/03/24 11:09:58;;;;;;;;;;;21.70;28.70;;;;;;470265;253;1076;-67
2021/03/24 11:12:00;;;;;;;;;;;21.70;28.70;;;;;;478206;248;1280;-68
2021/03/24 11:14:01;;;;;;;;;;;21.80;28.70;;;;;;470688;250;1090;-67
2021/03/24 11:16:02;;;;;;;;;;;21.70;28.60;;;;;;478278;248;1157;-67
2021/03/24 11:18:03;;;;;;;;;;;21.80;28.60;;;;;;470881;250;1228;-67
2021/03/24 11:20:05;;;;;;;;;;;21.80;28.60;;;;;;478521;248;1274;-67
2021/03/24 11:22:06;;;;;;;;;;;21.90;28.60;;;;;;470873;250;1110;-67
2021/03/24 11:24:07;;;;;;;;;;;21.90;28.50;;;;;;478335;248;1070;-68
2021/03/24 11:26:09;;;;;;;;;;;21.90;28.50;;;;;;470804;250;2201;-67
2021/03/24 11:28:11;;;;;;;;;;;21.90;28.50;;;;;;478402;248;1188;-67
2021/03/24 11:30:13;;;;;;;;;;;21.90;28.50;;;;;;470848;250;1083;-67
2021/03/24 11:32:14;;;;;;;;;;;21.80;28.50;;;;;;478330;248;1231;-67
2021/03/24 11:34:15;;;;;;;;;;;21.80;28.60;;;;;;470765;250;1189;-67
2021/03/24 11:36:16;;;;;;;;;;;21.80;28.60;;;;;;478487;248;1341;-67
2021/03/24 11:38:18;;;;;;;;;;;21.70;28.60;;;;;;470930;250;1194;-68
2021/03/24 11:40:19;;;;;;;;;;;21.70;28.60;;;;;;478426;248;1055;-67
2021/03/24 11:42:21;;;;;;;;;;;21.70;28.60;;;;;;470736;250;1278;-67
2021/03/24 11:44:22;;;;;;;;;;;21.80;28.60;;;;;;478511;248;1203;-68
2021/03/24 11:46:25;;;;;;;;;;;21.80;28.60;;;;;;470989;249;2202;-68
2021/03/24 11:48:26;;;;;;;;;;;21.80;28.60;;;;;;478551;248;1154;-68
2021/03/24 11:50:27;;;;;;;;;;;21.80;28.60;;;;;;470964;250;1194;-67
2021/03/24 11:52:29;;;;;;;;;;;21.80;28.50;;;;;;478459;248;1253;-68
2021/03/24 11:54:33;;;;;;;;;;;21.80;28.50;;;;;;470866;250;1065;-68
2021/03/24 11:56:31;;;;;;;;;;;21.80;28.50;;;;;;478565;243;1402;-68